createdAt,value
2023-03-16T00:03:24.754Z,98079.28
2023-03-16T00:07:29.502Z,98070.75
2023-03-16T00:11:32.723Z,98085.44
2023-03-16T00:15:35.828Z,98084.84
2023-03-16T00:19:39.129Z,98085.84
2023-03-16T00:23:45.986Z,98082.56
2023-03-16T00:27:48.889Z,98092.97
2023-03-16T00:31:52.484Z,98090.59
2023-03-16T00:36:02.691Z,98088.13
2023-03-16T00:40:09.648Z,98099.34
2023-03-16T00:44:12.752Z,98099.44
2023-03-16T00:48:19.488Z,98098.78
2023-03-16T00:52:23.902Z,98096.22
2023-03-16T00:56:29.321Z,98095.19
2023-03-16T01:00:33.018Z,98096.13
2023-03-16T01:04:37.294Z,98090.97
2023-03-16T01:08:40.966Z,98091.19
2023-03-16T01:12:46.428Z,98099.09
2023-03-16T01:16:49.855Z,98100.22
2023-03-16T01:20:53.951Z,98103.09
2023-03-16T01:24:57.121Z,98103.28
2023-03-16T01:29:02.530Z,98099.16
2023-03-16T01:33:06.028Z,98107.91
2023-03-16T01:37:09.486Z,98111.50
2023-03-16T01:41:14.007Z,98108.19
2023-03-16T01:45:56.571Z,98120.31
2023-03-16T01:50:01.318Z,98118.66
2023-03-16T01:54:08.201Z,98118.78
2023-03-16T01:58:14.860Z,98117.75
2023-03-16T02:02:23.080Z,98121.78
2023-03-16T02:06:28.824Z,98109.63
2023-03-16T02:10:32.603Z,98113.06
2023-03-16T02:14:35.850Z,98115.63
2023-03-16T02:18:39.107Z,98118.28
2023-03-16T02:22:47.239Z,98115.06
2023-03-16T02:26:56.537Z,98124.00
2023-03-16T02:31:02.467Z,98123.59
2023-03-16T02:35:08.179Z,98133.50
2023-03-16T02:39:11.454Z,98131.53
2023-03-16T02:43:18.111Z,98130.28
2023-03-16T02:47:31.713Z,98129.81
2023-03-16T02:51:34.922Z,98129.38
2023-03-16T02:55:38.281Z,98143.31
2023-03-16T02:59:41.993Z,98147.06
2023-03-16T03:03:46.360Z,98149.81
2023-03-16T03:07:50.774Z,98150.22
2023-03-16T03:11:53.840Z,98155.53
2023-03-16T03:15:57.032Z,98152.31
2023-03-16T03:20:07.974Z,98160.13
2023-03-16T03:24:11.346Z,98168.00
2023-03-16T03:28:14.570Z,98161.22
2023-03-16T03:32:17.810Z,98163.88
2023-03-16T03:36:22.742Z,98165.44
2023-03-16T03:40:26.538Z,98156.72
2023-03-16T03:44:29.633Z,98172.78
2023-03-16T03:48:32.920Z,98169.28
2023-03-16T03:52:37.543Z,98162.31
2023-03-16T03:56:40.907Z,98164.81
2023-03-16T04:00:45.174Z,98163.06
2023-03-16T04:04:48.115Z,98169.09
2023-03-16T04:08:54.549Z,98171.66
2023-03-16T04:12:58.302Z,98176.19
2023-03-16T04:17:02.232Z,98178.09
2023-03-16T04:21:07.673Z,98174.16
2023-03-16T04:25:12.830Z,98188.00
2023-03-16T04:29:18.412Z,98194.25
2023-03-16T04:33:22.122Z,98193.50
2023-03-16T04:37:25.246Z,98194.59
2023-03-16T04:41:30.089Z,98198.28
2023-03-16T04:45:33.614Z,98192.75
2023-03-16T04:49:37.108Z,98193.84
2023-03-16T04:53:40.243Z,98185.56
2023-03-16T04:57:45.006Z,98190.69
2023-03-16T05:01:49.068Z,98189.22
2023-03-16T05:05:52.530Z,98190.50
2023-03-16T05:09:55.726Z,98189.97
2023-03-16T05:14:00.247Z,98190.38
2023-03-16T05:18:03.445Z,98204.41
2023-03-16T05:22:06.844Z,98216.47
2023-03-16T05:26:10.026Z,98216.47
2023-03-16T05:30:16.778Z,98216.31
2023-03-16T05:34:21.026Z,98220.34
2023-03-16T05:38:24.154Z,98226.03
2023-03-16T05:42:28.257Z,98231.81
2023-03-16T05:46:33.933Z,98225.66
2023-03-16T05:50:37.147Z,98234.13
2023-03-16T05:54:40.456Z,98237.44
2023-03-16T05:58:43.666Z,98223.03
2023-03-16T06:02:49.736Z,98236.88
2023-03-16T06:06:53.090Z,98231.41
2023-03-16T06:10:56.293Z,98231.06
2023-03-16T06:14:59.450Z,98234.19
2023-03-16T06:19:04.089Z,98255.28
2023-03-16T06:23:07.165Z,98245.59
2023-03-16T06:27:10.576Z,98252.47
2023-03-16T06:31:14.361Z,98260.25
2023-03-16T06:35:19.429Z,98249.19
2023-03-16T06:39:22.920Z,98253.47
2023-03-16T06:43:26.301Z,98255.97
2023-03-16T06:47:29.598Z,98254.19
2023-03-16T06:51:34.430Z,98245.63
2023-03-16T06:55:38.667Z,98253.84
2023-03-16T06:59:41.823Z,98256.28
2023-03-16T07:03:45.047Z,98258.59
2023-03-16T07:07:50.681Z,98255.84
2023-03-16T07:11:53.970Z,98254.34
2023-03-16T07:15:57.016Z,98253.16
2023-03-16T07:20:00.182Z,98259.75
2023-03-16T07:24:05.620Z,98258.97
2023-03-16T07:28:08.736Z,98259.56
2023-03-16T07:32:11.925Z,98254.00
2023-03-16T07:36:15.497Z,98250.06
2023-03-16T07:40:20.488Z,98257.66
2023-03-16T07:44:23.752Z,98245.13
2023-03-16T07:48:27.715Z,98246.47
2023-03-16T07:52:30.827Z,98250.81
2023-03-16T07:56:47.883Z,98258.06
2023-03-16T08:00:51.855Z,98258.03
2023-03-16T08:04:55.024Z,98245.25
2023-03-16T08:08:58.257Z,98253.97
2023-03-16T08:13:05.005Z,98251.91
2023-03-16T08:17:08.482Z,98258.63
2023-03-16T08:21:11.612Z,98252.22
2023-03-16T08:25:16.161Z,98245.34
2023-03-16T08:29:21.546Z,98252.72
2023-03-16T08:33:25.032Z,98249.47
2023-03-16T08:37:28.687Z,98251.22
2023-03-16T08:41:33.258Z,98252.00
2023-03-16T08:45:38.198Z,98262.91
2023-03-16T08:50:00.849Z,98257.78
2023-03-16T08:54:05.740Z,98254.25
2023-03-16T08:58:08.989Z,98251.38
2023-03-16T09:02:16.110Z,98244.25
2023-03-16T09:06:19.356Z,98251.19
2023-03-16T09:10:23.475Z,98262.00
2023-03-16T09:14:27.244Z,98245.50
2023-03-16T09:18:32.790Z,98255.81
2023-03-16T09:22:35.973Z,98248.63
2023-03-16T09:26:40.431Z,98250.09
2023-03-16T09:30:43.514Z,98250.56
2023-03-16T09:34:50.145Z,98251.88
2023-03-16T09:38:53.435Z,98250.25
2023-03-16T09:43:07.458Z,98247.81
2023-03-16T09:47:12.683Z,98249.28
2023-03-16T09:51:22.489Z,98253.34
2023-03-16T09:55:32.118Z,98244.53
2023-03-16T09:59:35.323Z,98249.41
2023-03-16T10:03:57.682Z,98242.53
2023-03-16T10:08:10.220Z,98246.94
2023-03-16T10:12:16.178Z,98247.84
2023-03-16T10:16:23.052Z,98246.97
2023-03-16T10:20:28.789Z,98248.19
2023-03-16T10:24:44.416Z,98239.72
2023-03-16T10:28:48.096Z,98226.88
2023-03-16T10:32:51.854Z,98224.03
2023-03-16T10:36:56.769Z,98221.25
2023-03-16T10:41:01.912Z,98218.09
2023-03-16T10:45:05.904Z,98214.25
2023-03-16T10:49:24.242Z,98210.09
2023-03-16T10:53:30.384Z,98197.44
2023-03-16T10:57:37.246Z,98188.94
2023-03-16T11:01:40.506Z,98189.28
2023-03-16T11:05:43.761Z,98192.41
2023-03-16T11:09:48.297Z,98189.81
2023-03-16T11:13:57.977Z,98185.03
2023-03-16T11:18:01.300Z,98181.22
2023-03-16T11:22:12.246Z,98178.34
2023-03-16T11:26:22.834Z,98173.03
2023-03-16T11:30:31.327Z,98173.94
2023-03-16T11:34:35.339Z,98173.13
2023-03-16T11:38:47.972Z,98167.06
2023-03-16T11:43:02.121Z,98157.00
2023-03-16T11:47:18.846Z,98138.09
2023-03-16T11:51:36.555Z,98134.56
2023-03-16T11:55:47.197Z,98131.03
2023-03-16T12:00:09.710Z,98127.06
2023-03-16T12:04:37.283Z,98114.16
2023-03-16T12:09:01.936Z,98116.72
2023-03-16T12:13:20.698Z,98104.47
2023-03-16T12:17:27.553Z,98108.34
2023-03-16T12:21:35.390Z,98093.97
2023-03-16T12:25:43.170Z,98083.16
2023-03-16T12:29:58.805Z,98076.47
2023-03-16T12:34:11.623Z,98071.75
2023-03-16T12:38:30.651Z,98067.41
2023-03-16T12:42:58.262Z,98070.31
2023-03-16T12:47:12.624Z,98061.91
2023-03-16T12:51:16.136Z,98064.63
2023-03-16T12:55:25.145Z,98057.72
2023-03-16T12:59:38.490Z,98057.56
2023-03-16T13:03:43.017Z,98051.31
2023-03-16T13:07:51.061Z,98056.75
2023-03-16T13:11:56.142Z,98057.84
2023-03-16T13:16:09.710Z,98048.50
2023-03-16T13:20:32.053Z,98055.56
2023-03-16T13:24:41.380Z,98053.41
2023-03-16T13:28:51.849Z,98050.97
2023-03-16T13:32:56.469Z,98038.72
2023-03-16T13:37:03.694Z,98039.09
2023-03-16T13:41:12.927Z,98033.72
2023-03-16T13:45:23.270Z,98035.19
2023-03-16T13:49:28.196Z,98028.44
2023-03-16T13:53:33.537Z,98023.59
2023-03-16T13:57:39.538Z,98022.31
2023-03-16T14:01:45.988Z,98015.72
2023-03-16T14:05:50.284Z,98014.66
2023-03-16T14:09:54.273Z,98022.13
2023-03-16T14:13:59.862Z,98019.44
2023-03-16T14:18:15.726Z,98018.34
2023-03-16T14:22:21.560Z,98006.13
2023-03-16T14:26:25.006Z,98013.09
2023-03-16T14:30:30.821Z,98000.78
2023-03-16T14:34:39.082Z,97992.72
2023-03-16T14:38:43.914Z,97987.03
2023-03-16T14:42:47.491Z,97983.75
2023-03-16T14:46:50.824Z,97989.31
2023-03-16T14:50:58.260Z,97989.19
2023-03-16T14:55:03.793Z,97990.91
2023-03-16T14:59:07.337Z,97993.06
2023-03-16T15:03:13.962Z,97986.66
2023-03-16T15:07:27.479Z,97970.91
2023-03-16T15:11:31.890Z,97972.91
2023-03-16T15:15:36.222Z,97975.22
2023-03-16T15:19:39.936Z,97967.44
2023-03-16T15:23:45.769Z,97959.28
2023-03-16T15:27:49.714Z,97965.44
2023-03-16T15:31:54.568Z,97956.81
2023-03-16T15:35:59.909Z,97952.03
2023-03-16T15:40:17.173Z,97937.53
2023-03-16T15:44:20.765Z,97936.31
2023-03-16T15:48:24.905Z,97939.06
2023-03-16T15:52:34.383Z,97939.84
2023-03-16T15:56:53.177Z,97935.84
2023-03-16T16:00:59.738Z,97939.44
2023-03-16T16:05:03.176Z,97929.25
2023-03-16T16:09:06.537Z,97936.59
2023-03-16T16:13:15.067Z,97943.03
2023-03-16T16:17:36.393Z,97937.34
2023-03-16T16:21:45.429Z,97936.75
2023-03-16T16:25:49.646Z,97949.94
2023-03-16T16:29:54.114Z,97949.59
2023-03-16T16:33:57.735Z,97943.50
2023-03-16T16:38:00.744Z,97951.09
2023-03-16T16:42:04.137Z,97942.22
2023-03-16T16:46:14.375Z,97951.41
2023-03-16T16:50:20.035Z,97952.25
2023-03-16T16:54:25.851Z,97954.31
2023-03-16T16:58:32.933Z,97957.31
2023-03-16T17:02:46.154Z,97959.59
2023-03-16T17:06:51.867Z,97966.25
2023-03-16T17:10:56.094Z,97967.41
2023-03-16T17:14:59.499Z,97968.44
2023-03-16T17:19:05.082Z,97952.66
2023-03-16T17:23:25.721Z,97951.31
2023-03-16T17:27:33.177Z,97962.00
2023-03-16T17:31:39.501Z,97966.38
2023-03-16T17:35:45.222Z,97965.56
2023-03-16T17:39:48.707Z,97948.34
2023-03-16T17:43:54.950Z,97957.31
2023-03-16T17:47:58.515Z,97961.94
2023-03-16T17:52:02.744Z,97961.34
2023-03-16T17:56:17.113Z,97961.59
2023-03-16T18:00:24.843Z,97962.63
2023-03-16T18:04:28.218Z,97962.72
2023-03-16T18:08:34.699Z,97964.41
2023-03-16T18:12:38.234Z,97960.00
2023-03-16T18:16:42.097Z,97967.47
2023-03-16T18:20:46.720Z,97966.22
2023-03-16T18:24:52.993Z,97973.28
2023-03-16T18:28:59.927Z,97968.34
2023-03-16T18:33:04.194Z,97968.59
2023-03-16T18:37:09.102Z,97970.75
2023-03-16T18:41:18.257Z,97971.84
2023-03-16T18:45:22.346Z,97973.97
2023-03-16T18:49:30.807Z,97965.78
2023-03-16T18:53:34.717Z,97970.63
2023-03-16T18:57:39.105Z,97978.88
2023-03-16T19:01:44.856Z,97969.31
2023-03-16T19:05:48.526Z,97974.00
2023-03-16T19:09:57.110Z,97973.13
2023-03-16T19:14:01.681Z,97972.22
2023-03-16T19:18:05.202Z,97977.44
2023-03-16T19:22:13.897Z,97974.63
2023-03-16T19:26:18.393Z,97978.63
2023-03-16T19:30:29.696Z,97975.72
2023-03-16T19:34:33.393Z,97969.41
2023-03-16T19:38:39.678Z,97973.97
2023-03-16T19:42:43.533Z,97959.53
2023-03-16T19:46:48.937Z,97972.34
2023-03-16T19:50:52.297Z,97975.88
2023-03-16T19:54:56.026Z,97970.47
2023-03-16T19:59:00.571Z,97955.66
2023-03-16T20:03:05.612Z,97964.13
2023-03-16T20:07:17.054Z,97952.81
2023-03-16T20:11:26.685Z,97945.06
2023-03-16T20:15:33.328Z,97950.25
2023-03-16T20:19:37.843Z,97948.50
2023-03-16T20:23:41.417Z,97939.06
2023-03-16T20:27:45.335Z,97938.41
2023-03-16T20:31:49.226Z,97939.59
2023-03-16T20:35:54.700Z,97936.28
2023-03-16T20:40:00.363Z,97934.78
2023-03-16T20:44:04.073Z,97936.88
2023-03-16T20:48:15.605Z,97924.31
2023-03-16T20:52:22.932Z,97923.78
2023-03-16T20:56:27.055Z,97929.16
2023-03-16T21:00:35.409Z,97935.41
2023-03-16T21:04:38.764Z,97936.44
2023-03-16T21:08:43.953Z,97931.53
2023-03-16T21:12:49.488Z,97928.25
2023-03-16T21:16:55.235Z,97938.81
2023-03-16T21:20:58.956Z,97925.19
2023-03-16T21:25:03.800Z,97927.66
2023-03-16T21:29:12.604Z,97919.09
2023-03-16T21:33:30.700Z,97917.31
2023-03-16T21:37:34.210Z,97915.69
2023-03-16T21:41:38.950Z,97915.56
2023-03-16T21:45:43.606Z,97913.22
2023-03-16T21:49:47.036Z,97901.25
2023-03-16T21:53:51.423Z,97902.19
2023-03-16T21:57:57.161Z,97894.69
2023-03-16T22:02:02.396Z,97901.75
2023-03-16T22:06:07.600Z,97898.44
2023-03-16T22:10:16.293Z,97898.69
2023-03-16T22:14:22.201Z,97886.97
2023-03-16T22:18:30.257Z,97887.44
2023-03-16T22:22:34.715Z,97885.34
2023-03-16T22:26:38.108Z,97879.69
2023-03-16T22:30:43.010Z,97868.69
2023-03-16T22:34:49.836Z,97875.00
2023-03-16T22:38:59.948Z,97866.69
2023-03-16T22:43:08.380Z,97875.50
2023-03-16T22:47:22.698Z,97862.94
2023-03-16T22:51:29.080Z,97859.09
2023-03-16T22:55:36.341Z,97858.47
2023-03-16T22:59:39.698Z,97858.69
2023-03-16T23:03:44.314Z,97860.69
2023-03-16T23:07:48.286Z,97871.25
2023-03-16T23:11:54.468Z,97864.66
2023-03-16T23:15:58.105Z,97876.16
2023-03-16T23:20:02.744Z,97878.25
2023-03-16T23:24:07.330Z,97881.28
2023-03-16T23:28:14.297Z,97881.53
2023-03-16T23:32:18.728Z,97880.34
2023-03-16T23:36:25.426Z,97873.06
2023-03-16T23:40:31.167Z,97870.25
2023-03-16T23:44:35.048Z,97871.41
2023-03-16T23:48:40.030Z,97869.06
2023-03-16T23:52:44.877Z,97858.97
2023-03-16T23:56:48.403Z,97854.03
